(°C)
13°
13°
12°
12°
12°
12°
12°
(°C)
10°
10°
10°
10°
СЗ
СЗ
СЗ
ЗСЗ
ЗСЗ
ЗСЗ
СЗ
(км/ч)
8-17
7-13
8-15
8-16
9-16
10-19
11-22
(мм)
0
0
0
0
0
0
0
(%)
0
0
0
0
0
0
0

Высота солнцестояния

/ -15°
sun-icon
UV 3
06:34
18:54
Полнолуние (187°)
19:26
06:41

METAR для Ivanka pri Dunaji (LZIB)

Время Условия Температура/
Точка росы
Ветер Видимость Погода Облачность Давление Изменить Необработанный
VFR 14°C / 4°C 310º 6kt >10km - Clouds and Visibility OK 1026 No Significant change LZIB 211800Z 31006KT CAVOK 14/04 Q1026 NOSIG
VFR 14°C / 5°C 310º 6kt >10km - Clouds and Visibility OK 1026 No Significant change LZIB 211730Z 31006KT CAVOK 14/05 Q1026 NOSIG
VFR 15°C / 4°C 310º 5kt >10km - Clouds and Visibility OK 1026 No Significant change LZIB 211700Z 31005KT CAVOK 15/04 Q1026 NOSIG
VFR 15°C / 4°C 320º 6kt >10km - Clouds and Visibility OK 1026 No Significant change LZIB 211630Z 32006KT CAVOK 15/04 Q1026 NOSIG
VFR 15°C / 4°C 320º 8kt >10km - Clouds and Visibility OK 1026 No Significant change LZIB 211600Z 32008KT CAVOK 15/04 Q1026 NOSIG
VFR 15°C / 3°C 320º 8kt >10km - Clouds and Visibility OK 1026 No Significant change LZIB 211530Z 32008KT CAVOK 15/03 Q1026 NOSIG
VFR 15°C / 5°C 330º 10kt >10km - Clouds and Visibility OK 1026 No Significant change LZIB 211500Z 33010KT CAVOK 15/05 Q1026 NOSIG
VFR 16°C / 5°C 320º variable 280º to 340º 10kt >10km - Clouds and Visibility OK 1026 No Significant change LZIB 211430Z 32010KT 280V340 CAVOK 16/05 Q1026 NOSIG
VFR 16°C / 4°C 320º 11kt >10km - Clouds and Visibility OK 1026 No Significant change LZIB 211400Z 32011KT CAVOK 16/04 Q1026 NOSIG
VFR 16°C / 5°C 320º 10kt >10km - Clouds and Visibility OK 1026 No Significant change LZIB 211330Z 32010KT CAVOK 16/05 Q1026 NOSIG
VFR 16°C / 4°C 310º 12kt >10km - Clouds and Visibility OK 1026 No Significant change LZIB 211300Z 31012KT CAVOK 16/04 Q1026 NOSIG
VFR 17°C / 3°C 360º variable 330º to 040º 7kt >10km - Clouds and Visibility OK 1026 No Significant change LZIB 211230Z 36007KT 330V040 CAVOK 17/03 Q1026 NOSIG
VFR 16°C / 3°C 340º 9kt >10km - Clouds and Visibility OK 1026 No Significant change LZIB 211200Z 34009KT CAVOK 16/03 Q1026 NOSIG
VFR 16°C / 3°C 350º variable 330º to 030º 11kt >10km - Clouds and Visibility OK 1026 No Significant change LZIB 211130Z 35011KT 330V030 CAVOK 16/03 Q1026 NOSIG
VFR 16°C / 4°C 360º 11kt >10km - Clouds and Visibility OK 1026 No Significant change LZIB 211100Z 36011KT CAVOK 16/04 Q1026 NOSIG
VFR 15°C / 3°C 340º variable 320º to 030º 11kt >10km - Clouds and Visibility OK 1026 No Significant change LZIB 211030Z 34011KT 320V030 CAVOK 15/03 Q1026 NOSIG
VFR 16°C / 3°C 360º variable 330º to 040º 10kt >10km - Clouds and Visibility OK 1026 No Significant change LZIB 211000Z 36010KT 330V040 CAVOK 16/03 Q1026 NOSIG
VFR 16°C / 4°C 30º variable 340º to 070º 7kt >10km - Few Clouds 4800ft 1026 No Significant change LZIB 210930Z 03007KT 340V070 9999 FEW048 16/04 Q1026 NOSIG
VFR 15°C / 3°C 20º variable 340º to 050º 8kt >10km - Few Clouds 4600ft 1026 No Significant change LZIB 210900Z 02008KT 340V050 9999 FEW046 15/03 Q1026 NOSIG
VFR 15°C / 4°C 20º variable 350º to 050º 9kt >10km - Few Clouds 4600ft 1026 No Significant change LZIB 210830Z 02009KT 350V050 9999 FEW046 15/04 Q1026 NOSIG
VFR 14°C / 3°C 10º variable 340º to 040º 11kt >10km - Few Clouds 4200ft 1026 No Significant change LZIB 210800Z 01011KT 340V040 9999 FEW042 14/03 Q1026 NOSIG
VFR 14°C / 3°C 350º 11kt >10km - Clouds and Visibility OK 1026 No Significant change LZIB 210730Z 35011KT CAVOK 14/03 Q1026 NOSIG
VFR 14°C / 3°C 10º 10kt >10km - Clouds and Visibility OK 1025 No Significant change LZIB 210700Z 01010KT CAVOK 14/03 Q1025 NOSIG
VFR 13°C / 4°C 360º 9kt >10km - Clouds and Visibility OK 1025 No Significant change LZIB 210630Z 36009KT CAVOK 13/04 Q1025 NOSIG

VFR

14°C / 4°C

[Больше]
Ветер 310º 6kt
Видимость >10km
Погода -
Облачность Clouds and Visibility OK
Давление 1026
Изменить No Significant change
Необработанный LZIB 211800Z 31006KT CAVOK 14/04 Q1026 NOSIG

VFR

14°C / 5°C

[Больше]
Ветер 310º 6kt
Видимость >10km
Погода -
Облачность Clouds and Visibility OK
Давление 1026
Изменить No Significant change
Необработанный LZIB 211730Z 31006KT CAVOK 14/05 Q1026 NOSIG

VFR

15°C / 4°C

[Больше]
Ветер 310º 5kt
Видимость >10km
Погода -
Облачность Clouds and Visibility OK
Давление 1026
Изменить No Significant change
Необработанный LZIB 211700Z 31005KT CAVOK 15/04 Q1026 NOSIG

VFR

15°C / 4°C

[Больше]
Ветер 320º 6kt
Видимость >10km
Погода -
Облачность Clouds and Visibility OK
Давление 1026
Изменить No Significant change
Необработанный LZIB 211630Z 32006KT CAVOK 15/04 Q1026 NOSIG

VFR

15°C / 4°C

[Больше]
Ветер 320º 8kt
Видимость >10km
Погода -
Облачность Clouds and Visibility OK
Давление 1026
Изменить No Significant change
Необработанный LZIB 211600Z 32008KT CAVOK 15/04 Q1026 NOSIG

VFR

15°C / 3°C

[Больше]
Ветер 320º 8kt
Видимость >10km
Погода -
Облачность Clouds and Visibility OK
Давление 1026
Изменить No Significant change
Необработанный LZIB 211530Z 32008KT CAVOK 15/03 Q1026 NOSIG

VFR

15°C / 5°C

[Больше]
Ветер 330º 10kt
Видимость >10km
Погода -
Облачность Clouds and Visibility OK
Давление 1026
Изменить No Significant change
Необработанный LZIB 211500Z 33010KT CAVOK 15/05 Q1026 NOSIG

VFR

16°C / 5°C

[Больше]
Ветер 320º variable 280º to 340º 10kt
Видимость >10km
Погода -
Облачность Clouds and Visibility OK
Давление 1026
Изменить No Significant change
Необработанный LZIB 211430Z 32010KT 280V340 CAVOK 16/05 Q1026 NOSIG

VFR

16°C / 4°C

[Больше]
Ветер 320º 11kt
Видимость >10km
Погода -
Облачность Clouds and Visibility OK
Давление 1026
Изменить No Significant change
Необработанный LZIB 211400Z 32011KT CAVOK 16/04 Q1026 NOSIG

VFR

16°C / 5°C

[Больше]
Ветер 320º 10kt
Видимость >10km
Погода -
Облачность Clouds and Visibility OK
Давление 1026
Изменить No Significant change
Необработанный LZIB 211330Z 32010KT CAVOK 16/05 Q1026 NOSIG

VFR

16°C / 4°C

[Больше]
Ветер 310º 12kt
Видимость >10km
Погода -
Облачность Clouds and Visibility OK
Давление 1026
Изменить No Significant change
Необработанный LZIB 211300Z 31012KT CAVOK 16/04 Q1026 NOSIG

VFR

17°C / 3°C

[Больше]
Ветер 360º variable 330º to 040º 7kt
Видимость >10km
Погода -
Облачность Clouds and Visibility OK
Давление 1026
Изменить No Significant change
Необработанный LZIB 211230Z 36007KT 330V040 CAVOK 17/03 Q1026 NOSIG

VFR

16°C / 3°C

[Больше]
Ветер 340º 9kt
Видимость >10km
Погода -
Облачность Clouds and Visibility OK
Давление 1026
Изменить No Significant change
Необработанный LZIB 211200Z 34009KT CAVOK 16/03 Q1026 NOSIG

VFR

16°C / 3°C

[Больше]
Ветер 350º variable 330º to 030º 11kt
Видимость >10km
Погода -
Облачность Clouds and Visibility OK
Давление 1026
Изменить No Significant change
Необработанный LZIB 211130Z 35011KT 330V030 CAVOK 16/03 Q1026 NOSIG

VFR

16°C / 4°C

[Больше]
Ветер 360º 11kt
Видимость >10km
Погода -
Облачность Clouds and Visibility OK
Давление 1026
Изменить No Significant change
Необработанный LZIB 211100Z 36011KT CAVOK 16/04 Q1026 NOSIG

VFR

15°C / 3°C

[Больше]
Ветер 340º variable 320º to 030º 11kt
Видимость >10km
Погода -
Облачность Clouds and Visibility OK
Давление 1026
Изменить No Significant change
Необработанный LZIB 211030Z 34011KT 320V030 CAVOK 15/03 Q1026 NOSIG

VFR

16°C / 3°C

[Больше]
Ветер 360º variable 330º to 040º 10kt
Видимость >10km
Погода -
Облачность Clouds and Visibility OK
Давление 1026
Изменить No Significant change
Необработанный LZIB 211000Z 36010KT 330V040 CAVOK 16/03 Q1026 NOSIG

VFR

16°C / 4°C

[Больше]
Ветер 30º variable 340º to 070º 7kt
Видимость >10km
Погода -
Облачность Few Clouds 4800ft
Давление 1026
Изменить No Significant change
Необработанный LZIB 210930Z 03007KT 340V070 9999 FEW048 16/04 Q1026 NOSIG

VFR

15°C / 3°C

[Больше]
Ветер 20º variable 340º to 050º 8kt
Видимость >10km
Погода -
Облачность Few Clouds 4600ft
Давление 1026
Изменить No Significant change
Необработанный LZIB 210900Z 02008KT 340V050 9999 FEW046 15/03 Q1026 NOSIG

VFR

15°C / 4°C

[Больше]
Ветер 20º variable 350º to 050º 9kt
Видимость >10km
Погода -
Облачность Few Clouds 4600ft
Давление 1026
Изменить No Significant change
Необработанный LZIB 210830Z 02009KT 350V050 9999 FEW046 15/04 Q1026 NOSIG

VFR

14°C / 3°C

[Больше]
Ветер 10º variable 340º to 040º 11kt
Видимость >10km
Погода -
Облачность Few Clouds 4200ft
Давление 1026
Изменить No Significant change
Необработанный LZIB 210800Z 01011KT 340V040 9999 FEW042 14/03 Q1026 NOSIG

VFR

14°C / 3°C

[Больше]
Ветер 350º 11kt
Видимость >10km
Погода -
Облачность Clouds and Visibility OK
Давление 1026
Изменить No Significant change
Необработанный LZIB 210730Z 35011KT CAVOK 14/03 Q1026 NOSIG

VFR

14°C / 3°C

[Больше]
Ветер 10º 10kt
Видимость >10km
Погода -
Облачность Clouds and Visibility OK
Давление 1025
Изменить No Significant change
Необработанный LZIB 210700Z 01010KT CAVOK 14/03 Q1025 NOSIG

VFR

13°C / 4°C

[Больше]
Ветер 360º 9kt
Видимость >10km
Погода -
Облачность Clouds and Visibility OK
Давление 1025
Изменить No Significant change
Необработанный LZIB 210630Z 36009KT CAVOK 13/04 Q1025 NOSIG

TAF для Ivanka pri Dunaji (LZIB)

From till


From till Wind 310º 8kt. Visibility 10km or more. Nil Significant Cloud.
Becoming from till Wind 310º 8kt. Visibility 10km or more. Scattered Clouds 2500ft. Broken Clouds 4000ft.
Temporarly from till Light Rain .
Becoming from till Wind 310º 8kt. Visibility 10km or more. Scattered Clouds 4000ft.

Необработанный: TAF LZIB 211700Z 2118/2218 31008KT CAVOK BECMG 2201/2203 9999 SCT025 BKN040 TEMPO 2203/2209 -RA BECMG 2213/2215 9999 SCT040

Текущие спутниковые изображения и снимки дождя для Ivanka pri Dunaji, Словакия

Указатель местности находится на Ivanka pri Dunaji. [Больше]

Спутниковое изображение в реальном времени сочетает в себе видимый свет в дневное время с инфракрасным излучением в ночное время. Ночью изображение получается не темным, так как инфракрасное излучение может обнаружить разницу температур. К сожалению, низкие облака и туман трудно отличить от температуры у поверхности земли и поэтому могут быть почти незаметны ночью. Спутниковые снимки Meteosat для Европы обновляются каждые 5 минут в режиме реального времени.Снимки GOES-16/GOES-17 (Северная и Южная Америка) и Химавари (Азия) обновляются каждые 10 минут.

Вероятность осадков оценивается по данным радиолокаторов и спутников. Спутниковые данные о возможности осадков в ночное время менее точные, чем дневные данные. Оранжевыми крестами отмечаются места,где обнаруживается молния (болееЕвропа).

Копирайт 2021 EUMETSAT / meteoblue. Данные о молниях предоставляются со стороны nowcast.

Радарный и сверхкраткосрочный прогноз осадков для Ivanka pri Dunaji

Морось
Незначительные
Умеренные
Сильные
Очень Сильные
Град

Индикатор местности находится на Ivanka pri Dunaji. Анимация показывает радар осадков за последний час, а также прогноз погоды для 1h. Морось или небольшой снег могут быть невидимы для радара. Интенсивность осадков имеет цветовую кодировку - от светло-голубого до оранжевого.

Погода в настоящий момент и предупреждения

EUMETNET – MeteoAlarm

pictomap

Источник: SHMU

Возможны временные задержки между сведениями данного веб сайта и веб сайта www.meteoalarm.eu, для получения наиболее недавней информации о сигнальных уровнях, публикуемых со стороны National Meteorological Services, полжалуйста, используйте www.meteoalarm.eu.